sensor_id;sensor_type;location;lat;lon;timestamp;pressure;altitude;pressure_sealevel;temperature;humidity
15604;BME280;7902;49.042;9.092;2023-04-03T00:01:44;99903.97;;;10.25;49.46
15604;BME280;7902;49.042;9.092;2023-04-03T00:04:10;99900.75;;;10.20;50.36
15604;BME280;7902;49.042;9.092;2023-04-03T00:06:36;99901.59;;;10.20;49.76
15604;BME280;7902;49.042;9.092;2023-04-03T00:09:02;99892.81;;;10.21;49.01
15604;BME280;7902;49.042;9.092;2023-04-03T00:11:27;99901.69;;;10.19;50.31
15604;BME280;7902;49.042;9.092;2023-04-03T00:13:53;99900.41;;;10.26;49.64
15604;BME280;7902;49.042;9.092;2023-04-03T00:16:20;99900.94;;;10.17;49.95
15604;BME280;7902;49.042;9.092;2023-04-03T00:18:46;99899.72;;;10.22;49.70
15604;BME280;7902;49.042;9.092;2023-04-03T00:21:12;99904.63;;;10.12;49.61
15604;BME280;7902;49.042;9.092;2023-04-03T00:23:39;99909.75;;;10.16;49.36
15604;BME280;7902;49.042;9.092;2023-04-03T00:26:04;99908.19;;;10.11;50.40
15604;BME280;7902;49.042;9.092;2023-04-03T00:28:30;99903.09;;;10.08;49.41
15604;BME280;7902;49.042;9.092;2023-04-03T00:30:56;99904.81;;;10.09;49.97
15604;BME280;7902;49.042;9.092;2023-04-03T00:33:22;99892.44;;;10.11;49.63
15604;BME280;7902;49.042;9.092;2023-04-03T00:35:50;99899.25;;;10.16;49.52
15604;BME280;7902;49.042;9.092;2023-04-03T00:38:16;99899.25;;;10.16;49.75
15604;BME280;7902;49.042;9.092;2023-04-03T00:40:45;99890.75;;;10.10;49.41
15604;BME280;7902;49.042;9.092;2023-04-03T00:43:16;99899.72;;;10.22;49.99
15604;BME280;7902;49.042;9.092;2023-04-03T00:45:45;99902.00;;;10.12;50.21
15604;BME280;7902;49.042;9.092;2023-04-03T00:48:14;99899.97;;;10.18;49.06
15604;BME280;7902;49.042;9.092;2023-04-03T00:50:42;99900.94;;;10.17;49.89
15604;BME280;7902;49.042;9.092;2023-04-03T00:53:13;99903.09;;;10.08;49.53
15604;BME280;7902;49.042;9.092;2023-04-03T00:55:41;99899.47;;;10.11;50.19
15604;BME280;7902;49.042;9.092;2023-04-03T00:58:08;99897.69;;;10.11;50.11
15604;BME280;7902;49.042;9.092;2023-04-03T01:00:37;99900.31;;;10.11;50.25
15604;BME280;7902;49.042;9.092;2023-04-03T01:03:04;99903.47;;;10.02;50.47
15604;BME280;7902;49.042;9.092;2023-04-03T01:05:30;99898.06;;;10.05;50.52
15604;BME280;7902;49.042;9.092;2023-04-03T01:07:56;99891.09;;;10.04;49.68
15604;BME280;7902;49.042;9.092;2023-04-03T01:10:23;99894.91;;;9.99;50.24
15604;BME280;7902;49.042;9.092;2023-04-03T01:12:49;99891.91;;;9.91;50.59
15604;BME280;7902;49.042;9.092;2023-04-03T01:15:23;99896.53;;;10.01;50.33
15604;BME280;7902;49.042;9.092;2023-04-03T01:17:54;99897.28;;;10.03;49.67
15604;BME280;7902;49.042;9.092;2023-04-03T01:25:38;99888.63;;;9.87;50.79
15604;BME280;7902;49.042;9.092;2023-04-03T01:28:05;99896.47;;;9.87;50.18
15604;BME280;7902;49.042;9.092;2023-04-03T01:30:35;99897.66;;;9.82;50.85
15604;BME280;7902;49.042;9.092;2023-04-03T01:33:02;99890.31;;;9.73;50.41
15604;BME280;7902;49.042;9.092;2023-04-03T01:35:28;99895.22;;;9.79;50.82
15604;BME280;7902;49.042;9.092;2023-04-03T01:37:54;99885.00;;;9.74;49.97
15604;BME280;7902;49.042;9.092;2023-04-03T01:40:20;99897.09;;;9.77;51.04
15604;BME280;7902;49.042;9.092;2023-04-03T01:42:46;99891.16;;;9.73;50.62
15604;BME280;7902;49.042;9.092;2023-04-03T01:45:11;99909.09;;;9.81;50.42
15604;BME280;7902;49.042;9.092;2023-04-03T01:47:37;99905.22;;;9.72;50.07
15604;BME280;7902;49.042;9.092;2023-04-03T01:50:04;99910.44;;;9.72;50.12
15604;BME280;7902;49.042;9.092;2023-04-03T01:52:30;99907.06;;;9.70;50.67
15604;BME280;7902;49.042;9.092;2023-04-03T01:54:55;99903.19;;;9.77;50.57
15604;BME280;7902;49.042;9.092;2023-04-03T01:57:21;99905.13;;;9.74;50.32
15604;BME280;7902;49.042;9.092;2023-04-03T01:59:47;99913.16;;;9.86;49.41
15604;BME280;7902;49.042;9.092;2023-04-03T02:02:13;99915.19;;;9.81;49.48
15604;BME280;7902;49.042;9.092;2023-04-03T02:04:40;99914.59;;;9.76;49.58
15604;BME280;7902;49.042;9.092;2023-04-03T02:07:06;99911.13;;;9.76;49.73
15604;BME280;7902;49.042;9.092;2023-04-03T02:09:32;99910.78;;;9.82;49.93
15604;BME280;7902;49.042;9.092;2023-04-03T02:11:58;99906.31;;;9.84;49.19
15604;BME280;7902;49.042;9.092;2023-04-03T02:14:25;99909.84;;;9.83;49.02
15604;BME280;7902;49.042;9.092;2023-04-03T02:16:53;99913.34;;;9.83;48.98
15604;BME280;7902;49.042;9.092;2023-04-03T02:19:18;99910.28;;;9.75;48.94
15604;BME280;7902;49.042;9.092;2023-04-03T02:21:44;99914.34;;;9.81;49.82
15604;BME280;7902;49.042;9.092;2023-04-03T02:24:10;99918.06;;;9.92;48.84
15604;BME280;7902;49.042;9.092;2023-04-03T02:26:36;99917.06;;;9.79;49.47
15604;BME280;7902;49.042;9.092;2023-04-03T02:29:02;99912.56;;;9.81;48.93
15604;BME280;7902;49.042;9.092;2023-04-03T02:31:28;99915.44;;;9.77;49.43
15604;BME280;7902;49.042;9.092;2023-04-03T02:33:54;99909.66;;;9.86;49.92
15604;BME280;7902;49.042;9.092;2023-04-03T02:36:20;99914.50;;;9.93;48.26
15604;BME280;7902;49.042;9.092;2023-04-03T02:38:46;99913.16;;;9.86;49.47
15604;BME280;7902;49.042;9.092;2023-04-03T02:41:12;99920.88;;;10.03;49.51
15604;BME280;7902;49.042;9.092;2023-04-03T02:43:38;99916.75;;;9.99;49.02
15604;BME280;7902;49.042;9.092;2023-04-03T02:46:04;99924.03;;;9.94;48.62
15604;BME280;7902;49.042;9.092;2023-04-03T02:48:31;99921.94;;;9.85;49.18
15604;BME280;7902;49.042;9.092;2023-04-03T02:50:57;99919.97;;;9.89;49.32
15604;BME280;7902;49.042;9.092;2023-04-03T02:53:23;99926.84;;;9.91;48.71
15604;BME280;7902;49.042;9.092;2023-04-03T02:55:49;99923.38;;;9.91;48.83
15604;BME280;7902;49.042;9.092;2023-04-03T02:58:15;99911.13;;;9.91;49.43
15604;BME280;7902;49.042;9.092;2023-04-03T03:00:41;99920.94;;;9.88;48.91
15604;BME280;7902;49.042;9.092;2023-04-03T03:03:07;99919.31;;;9.85;49.32
15604;BME280;7902;49.042;9.092;2023-04-03T03:05:33;99922.19;;;9.81;49.25
15604;BME280;7902;49.042;9.092;2023-04-03T03:07:59;99922.38;;;9.78;49.80
15604;BME280;7902;49.042;9.092;2023-04-03T03:10:25;99923.72;;;9.85;49.89
15604;BME280;7902;49.042;9.092;2023-04-03T03:12:51;99915.69;;;9.88;48.95
15604;BME280;7902;49.042;9.092;2023-04-03T03:15:17;99910.59;;;9.85;50.17
15604;BME280;7902;49.042;9.092;2023-04-03T03:17:44;99915.19;;;9.81;49.33
15604;BME280;7902;49.042;9.092;2023-04-03T03:20:11;99913.16;;;9.86;49.84
15604;BME280;7902;49.042;9.092;2023-04-03T03:22:38;99907.56;;;9.92;50.11
15604;BME280;7902;49.042;9.092;2023-04-03T03:25:04;99910.53;;;9.86;49.76
15604;BME280;7902;49.042;9.092;2023-04-03T03:27:30;99911.63;;;9.82;49.73
15604;BME280;7902;49.042;9.092;2023-04-03T03:29:56;99907.72;;;9.89;49.89
15604;BME280;7902;49.042;9.092;2023-04-03T03:32:22;99908.56;;;9.90;49.69
15604;BME280;7902;49.042;9.092;2023-04-03T03:34:48;99902.66;;;9.86;49.62
15604;BME280;7902;49.042;9.092;2023-04-03T03:37:14;99899.44;;;9.81;49.71
15604;BME280;7902;49.042;9.092;2023-04-03T03:39:39;99904.44;;;9.86;50.11
15604;BME280;7902;49.042;9.092;2023-04-03T03:42:06;99910.13;;;9.78;49.38
15604;BME280;7902;49.042;9.092;2023-04-03T03:44:32;99908.59;;;9.74;49.89
15604;BME280;7902;49.042;9.092;2023-04-03T03:46:57;99904.19;;;9.75;49.33
15604;BME280;7902;49.042;9.092;2023-04-03T03:49:23;99911.63;;;9.66;50.04
15604;BME280;7902;49.042;9.092;2023-04-03T03:51:49;99913.06;;;9.72;50.58
15604;BME280;7902;49.042;9.092;2023-04-03T03:54:16;99909.78;;;9.68;49.75
15604;BME280;7902;49.042;9.092;2023-04-03T03:56:42;99908.09;;;9.67;50.23
15604;BME280;7902;49.042;9.092;2023-04-03T03:59:08;99910.78;;;9.66;49.99
15604;BME280;7902;49.042;9.092;2023-04-03T04:01:34;99912.75;;;9.62;50.39
15604;BME280;7902;49.042;9.092;2023-04-03T04:03:59;99911.63;;;9.66;49.75
15604;BME280;7902;49.042;9.092;2023-04-03T04:06:25;99914.69;;;9.59;49.92
15604;BME280;7902;49.042;9.092;2023-04-03T04:08:51;99915.63;;;9.58;50.08
15604;BME280;7902;49.042;9.092;2023-04-03T04:11:17;99915.69;;;9.56;50.01
15604;BME280;7902;49.042;9.092;2023-04-03T04:13:44;99915.53;;;9.59;50.12
15604;BME280;7902;49.042;9.092;2023-04-03T04:16:10;99923.31;;;9.61;50.17
15604;BME280;7902;49.042;9.092;2023-04-03T04:18:36;99926.38;;;9.53;50.65
15604;BME280;7902;49.042;9.092;2023-04-03T04:21:02;99921.53;;;9.61;50.20
15604;BME280;7902;49.042;9.092;2023-04-03T04:23:28;99915.94;;;9.52;50.03
15604;BME280;7902;49.042;9.092;2023-04-03T04:25:53;99918.75;;;9.49;50.40
15604;BME280;7902;49.042;9.092;2023-04-03T04:28:19;99916.38;;;9.44;50.23
15604;BME280;7902;49.042;9.092;2023-04-03T04:30:45;99921.44;;;9.47;50.89
15604;BME280;7902;49.042;9.092;2023-04-03T04:33:11;99933.09;;;9.42;50.95
15604;BME280;7902;49.042;9.092;2023-04-03T04:35:41;99936.22;;;9.33;50.57
15604;BME280;7902;49.042;9.092;2023-04-03T04:38:07;99935.84;;;9.40;50.64
15604;BME280;7902;49.042;9.092;2023-04-03T04:40:34;99935.31;;;9.34;50.84
15604;BME280;7902;49.042;9.092;2023-04-03T04:43:00;99937.69;;;9.38;50.68
15604;BME280;7902;49.042;9.092;2023-04-03T04:45:26;99935.91;;;9.39;51.41
15604;BME280;7902;49.042;9.092;2023-04-03T04:47:55;99937.19;;;9.32;51.00
15604;BME280;7902;49.042;9.092;2023-04-03T04:50:21;99937.31;;;9.29;50.87
15604;BME280;7902;49.042;9.092;2023-04-03T04:52:47;99941.22;;;9.21;51.20
15604;BME280;7902;49.042;9.092;2023-04-03T04:55:12;99942.22;;;9.19;50.88
15604;BME280;7902;49.042;9.092;2023-04-03T04:57:38;99943.38;;;9.13;51.08
15604;BME280;7902;49.042;9.092;2023-04-03T05:00:05;99938.00;;;9.16;51.58
15604;BME280;7902;49.042;9.092;2023-04-03T05:02:31;99937.47;;;9.10;51.31
15604;BME280;7902;49.042;9.092;2023-04-03T05:04:57;99949.28;;;9.01;50.91
15604;BME280;7902;49.042;9.092;2023-04-03T05:07:24;99943.06;;;9.04;51.02
15604;BME280;7902;49.042;9.092;2023-04-03T05:09:50;99943.72;;;9.07;50.90
15604;BME280;7902;49.042;9.092;2023-04-03T05:12:16;99941.34;;;9.03;50.75
15604;BME280;7902;49.042;9.092;2023-04-03T05:14:42;99948.28;;;9.04;50.91
15604;BME280;7902;49.042;9.092;2023-04-03T05:17:08;99949.13;;;9.04;51.39
15604;BME280;7902;49.042;9.092;2023-04-03T05:19:34;99948.06;;;9.08;51.10
15604;BME280;7902;49.042;9.092;2023-04-03T05:22:00;99955.13;;;9.06;51.10
15604;BME280;7902;49.042;9.092;2023-04-03T05:24:26;99954.53;;;9.01;51.21
15604;BME280;7902;49.042;9.092;2023-04-03T05:26:52;99959.28;;;9.10;50.93
15604;BME280;7902;49.042;9.092;2023-04-03T05:29:18;99952.06;;;8.98;51.26
15604;BME280;7902;49.042;9.092;2023-04-03T05:31:44;99954.44;;;9.03;51.33
15604;BME280;7902;49.042;9.092;2023-04-03T05:34:10;99960.63;;;9.02;51.20
15604;BME280;7902;49.042;9.092;2023-04-03T05:36:35;99964.31;;;8.98;51.50
15604;BME280;7902;49.042;9.092;2023-04-03T05:39:02;99964.94;;;9.03;51.08
15604;BME280;7902;49.042;9.092;2023-04-03T05:41:28;99965.31;;;8.95;51.26
15604;BME280;7902;49.042;9.092;2023-04-03T05:43:54;99972.25;;;8.96;51.29
15604;BME280;7902;49.042;9.092;2023-04-03T05:46:20;99966.69;;;9.02;50.95
15604;BME280;7902;49.042;9.092;2023-04-03T05:48:46;99964.50;;;9.10;50.84
15604;BME280;7902;49.042;9.092;2023-04-03T05:51:18;99971.94;;;9.02;50.98
15604;BME280;7902;49.042;9.092;2023-04-03T05:53:45;99975.00;;;9.10;50.99
15604;BME280;7902;49.042;9.092;2023-04-03T05:56:12;99971.28;;;9.14;50.16
15604;BME280;7902;49.042;9.092;2023-04-03T05:58:38;99983.63;;;9.12;50.72
15604;BME280;7902;49.042;9.092;2023-04-03T06:01:04;99982.94;;;9.09;50.84
15604;BME280;7902;49.042;9.092;2023-04-03T06:03:31;99984.84;;;9.22;50.47
15604;BME280;7902;49.042;9.092;2023-04-03T06:05:57;99979.13;;;9.32;50.21
15604;BME280;7902;49.042;9.092;2023-04-03T06:08:23;99982.13;;;9.24;50.62
15604;BME280;7902;49.042;9.092;2023-04-03T06:10:49;99987.66;;;9.35;50.47
15604;BME280;7902;49.042;9.092;2023-04-03T06:13:16;99984.00;;;9.38;50.33
15604;BME280;7902;49.042;9.092;2023-04-03T06:15:42;99992.47;;;9.43;50.19
15604;BME280;7902;49.042;9.092;2023-04-03T06:18:08;99980.66;;;9.36;50.29
15604;BME280;7902;49.042;9.092;2023-04-03T06:20:34;99984.72;;;9.41;50.10
15604;BME280;7902;49.042;9.092;2023-04-03T06:23:00;99988.34;;;9.39;49.72
15604;BME280;7902;49.042;9.092;2023-04-03T06:25:26;99979.78;;;9.35;50.70
15604;BME280;7902;49.042;9.092;2023-04-03T06:27:52;99994.44;;;9.39;50.65
15604;BME280;7902;49.042;9.092;2023-04-03T06:30:18;99987.00;;;9.47;50.42
15604;BME280;7902;49.042;9.092;2023-04-03T06:32:44;99987.84;;;9.48;50.57
15604;BME280;7902;49.042;9.092;2023-04-03T06:35:10;99991.13;;;9.51;49.83
15604;BME280;7902;49.042;9.092;2023-04-03T06:37:36;99986.31;;;9.44;50.27
15604;BME280;7902;49.042;9.092;2023-04-03T06:40:02;99992.34;;;9.46;50.59
15604;BME280;7902;49.042;9.092;2023-04-03T06:42:28;100006.03;;;9.51;49.90
15604;BME280;7902;49.042;9.092;2023-04-03T06:44:54;100000.56;;;9.55;50.59
15604;BME280;7902;49.042;9.092;2023-04-03T06:47:20;100001.72;;;9.50;50.79
15604;BME280;7902;49.042;9.092;2023-04-03T06:49:46;100003.91;;;9.57;50.26
15604;BME280;7902;49.042;9.092;2023-04-03T06:52:12;99999.84;;;9.52;51.10
15604;BME280;7902;49.042;9.092;2023-04-03T06:54:39;99996.84;;;9.59;50.65
15604;BME280;7902;49.042;9.092;2023-04-03T06:57:06;99994.09;;;9.61;50.44
15604;BME280;7902;49.042;9.092;2023-04-03T06:59:33;99998.59;;;9.59;50.35
15604;BME280;7902;49.042;9.092;2023-04-03T07:01:59;100010.63;;;9.63;50.07
15604;BME280;7902;49.042;9.092;2023-04-03T07:04:25;100005.19;;;9.66;51.09
15604;BME280;7902;49.042;9.092;2023-04-03T07:06:52;100007.41;;;9.74;50.13
15604;BME280;7902;49.042;9.092;2023-04-03T07:09:18;100007.66;;;9.69;50.94
15604;BME280;7902;49.042;9.092;2023-04-03T07:11:44;100008.09;;;9.77;51.16
15604;BME280;7902;49.042;9.092;2023-04-03T07:14:10;100009.00;;;9.76;50.60
15604;BME280;7902;49.042;9.092;2023-04-03T07:16:36;100023.41;;;9.85;50.83
15604;BME280;7902;49.042;9.092;2023-04-03T07:19:02;100012.31;;;9.95;50.33
15604;BME280;7902;49.042;9.092;2023-04-03T07:21:29;100024.69;;;9.93;50.87
15604;BME280;7902;49.042;9.092;2023-04-03T07:23:55;100016.03;;;9.91;50.01
15604;BME280;7902;49.042;9.092;2023-04-03T07:26:21;100026.28;;;9.96;51.07
15604;BME280;7902;49.042;9.092;2023-04-03T07:28:48;100027.81;;;10.00;50.48
15604;BME280;7902;49.042;9.092;2023-04-03T07:31:16;100029.91;;;10.09;50.67
15604;BME280;7902;49.042;9.092;2023-04-03T07:33:43;100030.75;;;10.09;50.38
15604;BME280;7902;49.042;9.092;2023-04-03T07:36:10;100028.59;;;10.18;51.33
15604;BME280;7902;49.042;9.092;2023-04-03T07:38:40;100026.91;;;10.17;50.24
15604;BME280;7902;49.042;9.092;2023-04-03T07:41:06;100041.38;;;10.24;50.80
15604;BME280;7902;49.042;9.092;2023-04-03T07:43:32;100041.78;;;10.32;50.44
15604;BME280;7902;49.042;9.092;2023-04-03T07:45:59;100033.41;;;10.25;50.94
15604;BME280;7902;49.042;9.092;2023-04-03T07:48:26;100045.50;;;10.28;50.43
15604;BME280;7902;49.042;9.092;2023-04-03T07:50:52;100043.56;;;10.31;50.23
15604;BME280;7902;49.042;9.092;2023-04-03T07:53:18;100041.13;;;10.28;51.30
15604;BME280;7902;49.042;9.092;2023-04-03T07:55:48;100040.84;;;10.33;51.00
15604;BME280;7902;49.042;9.092;2023-04-03T07:58:16;100048.06;;;10.45;50.49
15604;BME280;7902;49.042;9.092;2023-04-03T08:00:42;100051.94;;;10.38;50.52
15604;BME280;7902;49.042;9.092;2023-04-03T08:03:10;100047.94;;;10.46;50.86
15604;BME280;7902;49.042;9.092;2023-04-03T08:05:41;100042.44;;;10.51;50.35
15604;BME280;7902;49.042;9.092;2023-04-03T08:08:07;100050.16;;;10.54;50.66
15604;BME280;7902;49.042;9.092;2023-04-03T08:10:34;100052.06;;;10.66;50.78
15604;BME280;7902;49.042;9.092;2023-04-03T08:13:00;100052.50;;;10.59;50.51
15604;BME280;7902;49.042;9.092;2023-04-03T08:15:26;100057.56;;;10.77;50.32
15604;BME280;7902;49.042;9.092;2023-04-03T08:17:53;100053.41;;;10.73;50.25
15604;BME280;7902;49.042;9.092;2023-04-03T08:20:19;100061.31;;;10.73;49.64
15604;BME280;7902;49.042;9.092;2023-04-03T08:22:45;100051.53;;;10.75;49.79
15604;BME280;7902;49.042;9.092;2023-04-03T08:25:11;100060.31;;;10.90;49.33
15604;BME280;7902;49.042;9.092;2023-04-03T08:27:36;100047.78;;;10.79;50.10
15604;BME280;7902;49.042;9.092;2023-04-03T08:30:03;100038.63;;;10.86;49.42
15604;BME280;7902;49.042;9.092;2023-04-03T08:32:30;100052.50;;;10.88;49.69
15604;BME280;7902;49.042;9.092;2023-04-03T08:34:56;100055.31;;;10.85;49.99
15604;BME280;7902;49.042;9.092;2023-04-03T08:37:22;100050.34;;;10.81;49.53
15604;BME280;7902;49.042;9.092;2023-04-03T08:39:47;100055.50;;;10.82;48.53
15604;BME280;7902;49.042;9.092;2023-04-03T08:42:34;100048.59;;;10.95;48.77
15604;BME280;7902;49.042;9.092;2023-04-03T08:45:14;100048.59;;;10.95;49.43
15604;BME280;7902;49.042;9.092;2023-04-03T08:47:47;100055.72;;;10.93;49.22
15604;BME280;7902;49.042;9.092;2023-04-03T08:50:51;100053.84;;;10.95;48.90
15604;BME280;7902;49.042;9.092;2023-04-03T08:53:18;100053.50;;;11.02;48.25
15604;BME280;7902;49.042;9.092;2023-04-03T08:55:48;100057.06;;;11.00;48.51
15604;BME280;7902;49.042;9.092;2023-04-03T08:58:31;100056.66;;;11.07;49.28
15604;BME280;7902;49.042;9.092;2023-04-03T09:01:01;100053.09;;;11.08;49.24
15604;BME280;7902;49.042;9.092;2023-04-03T09:03:31;100061.66;;;10.97;49.03
15604;BME280;7902;49.042;9.092;2023-04-03T09:06:09;100066.91;;;10.97;48.71
15604;BME280;7902;49.042;9.092;2023-04-03T09:08:43;100063.53;;;11.09;48.34
15604;BME280;7902;49.042;9.092;2023-04-03T09:14:24;100056.50;;;11.10;48.28
15604;BME280;7902;49.042;9.092;2023-04-03T09:16:54;100059.84;;;10.97;48.52
15604;BME280;7902;49.042;9.092;2023-04-03T09:22:13;100063.81;;;11.05;48.18
15604;BME280;7902;49.042;9.092;2023-04-03T09:24:45;100057.34;;;11.10;49.09
15604;BME280;7902;49.042;9.092;2023-04-03T09:27:11;100058.63;;;11.03;48.71
15604;BME280;7902;49.042;9.092;2023-04-03T09:29:41;100053.53;;;11.16;47.70
15604;BME280;7902;49.042;9.092;2023-04-03T09:32:21;100052.53;;;11.02;49.74
15604;BME280;7902;49.042;9.092;2023-04-03T09:34:52;100050.63;;;11.20;48.26
15604;BME280;7902;49.042;9.092;2023-04-03T09:37:41;100052.47;;;11.18;49.39
15604;BME280;7902;49.042;9.092;2023-04-03T09:42:54;100051.16;;;11.25;48.23
15604;BME280;7902;49.042;9.092;2023-04-03T09:45:32;100047.13;;;11.20;48.32
15604;BME280;7902;49.042;9.092;2023-04-03T09:48:15;100053.06;;;11.23;48.11
15604;BME280;7902;49.042;9.092;2023-04-03T09:53:42;100053.69;;;11.27;48.20
15604;BME280;7902;49.042;9.092;2023-04-03T09:58:45;100049.38;;;11.40;47.98
15604;BME280;7902;49.042;9.092;2023-04-03T10:01:23;100051.28;;;11.38;48.69
15604;BME280;7902;49.042;9.092;2023-04-03T10:04:17;100048.66;;;11.38;48.99
15604;BME280;7902;49.042;9.092;2023-04-03T10:06:51;100050.81;;;11.45;48.66
15604;BME280;7902;49.042;9.092;2023-04-03T10:12:10;100057.28;;;11.54;47.99
15604;BME280;7902;49.042;9.092;2023-04-03T10:14:40;100049.78;;;11.62;48.94
15604;BME280;7902;49.042;9.092;2023-04-03T10:20:35;100057.13;;;11.57;47.75
15604;BME280;7902;49.042;9.092;2023-04-03T10:23:17;100053.16;;;11.64;48.40
15604;BME280;7902;49.042;9.092;2023-04-03T10:31:45;100052.44;;;11.76;47.93
15604;BME280;7902;49.042;9.092;2023-04-03T10:34:28;100045.75;;;11.71;47.68
15604;BME280;7902;49.042;9.092;2023-04-03T10:42:50;100039.28;;;11.76;47.08
15604;BME280;7902;49.042;9.092;2023-04-03T10:45:28;100047.03;;;11.64;47.49
15604;BME280;7902;49.042;9.092;2023-04-03T10:48:29;100047.53;;;11.70;47.77
15604;BME280;7902;49.042;9.092;2023-04-03T10:51:26;100043.47;;;11.65;46.95
15604;BME280;7902;49.042;9.092;2023-04-03T10:54:09;100046.78;;;11.82;46.64
15604;BME280;7902;49.042;9.092;2023-04-03T10:56:40;100047.19;;;11.76;46.83
15604;BME280;7902;49.042;9.092;2023-04-03T10:59:32;100043.78;;;11.74;47.24
15604;BME280;7902;49.042;9.092;2023-04-03T11:02:16;100036.94;;;11.86;47.39
15604;BME280;7902;49.042;9.092;2023-04-03T11:04:47;100049.06;;;11.74;47.42
15604;BME280;7902;49.042;9.092;2023-04-03T11:07:21;100040.22;;;11.75;46.20
15604;BME280;7902;49.042;9.092;2023-04-03T11:09:53;100038.31;;;11.63;45.60
15604;BME280;7902;49.042;9.092;2023-04-03T11:12:27;100033.59;;;11.68;46.75
15604;BME280;7902;49.042;9.092;2023-04-03T11:14:56;100032.22;;;11.63;46.42
15604;BME280;7902;49.042;9.092;2023-04-03T11:17:28;100032.69;;;11.55;45.82
15604;BME280;7902;49.042;9.092;2023-04-03T11:20:14;100039.06;;;11.65;45.14
15604;BME280;7902;49.042;9.092;2023-04-03T11:22:46;100039.47;;;11.73;45.07
15604;BME280;7902;49.042;9.092;2023-04-03T11:25:23;100037.00;;;11.70;45.07
15604;BME280;7902;49.042;9.092;2023-04-03T11:28:01;100021.59;;;11.64;46.04
15604;BME280;7902;49.042;9.092;2023-04-03T11:30:32;100023.38;;;11.50;45.11
15604;BME280;7902;49.042;9.092;2023-04-03T11:35:50;100025.00;;;11.52;45.86
15604;BME280;7902;49.042;9.092;2023-04-03T11:38:22;100027.69;;;11.51;45.07
15604;BME280;7902;49.042;9.092;2023-04-03T11:40:50;100026.28;;;11.45;45.83
15604;BME280;7902;49.042;9.092;2023-04-03T11:43:28;100017.53;;;11.59;45.33
15604;BME280;7902;49.042;9.092;2023-04-03T11:46:00;100021.78;;;11.61;45.90
15604;BME280;7902;49.042;9.092;2023-04-03T11:51:01;100017.09;;;11.52;46.08
15604;BME280;7902;49.042;9.092;2023-04-03T11:53:35;100005.25;;;11.45;45.25
15604;BME280;7902;49.042;9.092;2023-04-03T12:01:52;99997.81;;;11.66;45.72
15604;BME280;7902;49.042;9.092;2023-04-03T12:04:21;100000.38;;;11.67;44.68
15604;BME280;7902;49.042;9.092;2023-04-03T12:09:27;100001.94;;;11.70;45.26
15604;BME280;7902;49.042;9.092;2023-04-03T12:11:55;99995.84;;;11.69;44.85
15604;BME280;7902;49.042;9.092;2023-04-03T12:14:23;99995.75;;;11.71;45.17
15604;BME280;7902;49.042;9.092;2023-04-03T12:16:53;99996.44;;;11.74;45.56
15604;BME280;7902;49.042;9.092;2023-04-03T12:19:37;99993.69;;;11.62;45.00
15604;BME280;7902;49.042;9.092;2023-04-03T12:22:08;99994.34;;;11.65;45.13
15604;BME280;7902;49.042;9.092;2023-04-03T12:24:36;99982.13;;;11.64;45.25
15604;BME280;7902;49.042;9.092;2023-04-03T12:27:20;99986.44;;;11.65;44.15
15604;BME280;7902;49.042;9.092;2023-04-03T12:32:41;99981.56;;;11.45;43.70
15604;BME280;7902;49.042;9.092;2023-04-03T12:35:34;99986.19;;;11.56;44.44
15604;BME280;7902;49.042;9.092;2023-04-03T12:44:01;99973.50;;;11.62;43.67
15604;BME280;7902;49.042;9.092;2023-04-03T12:46:39;99972.91;;;11.71;44.30
15604;BME280;7902;49.042;9.092;2023-04-03T12:49:41;99973.22;;;11.67;44.65
15604;BME280;7902;49.042;9.092;2023-04-03T12:52:24;99970.88;;;11.76;43.78
15604;BME280;7902;49.042;9.092;2023-04-03T12:54:54;99970.88;;;11.76;44.41
15604;BME280;7902;49.042;9.092;2023-04-03T12:57:24;99967.41;;;11.76;44.87
15604;BME280;7902;49.042;9.092;2023-04-03T12:59:50;99970.66;;;11.65;45.73
15604;BME280;7902;49.042;9.092;2023-04-03T13:02:28;99960.91;;;11.67;45.30
15604;BME280;7902;49.042;9.092;2023-04-03T13:04:57;99962.88;;;11.78;45.10
15604;BME280;7902;49.042;9.092;2023-04-03T13:07:30;99958.22;;;11.96;44.38
15604;BME280;7902;49.042;9.092;2023-04-03T13:10:01;99955.31;;;12.00;44.17
15604;BME280;7902;49.042;9.092;2023-04-03T13:12:28;99954.19;;;11.90;45.82
15604;BME280;7902;49.042;9.092;2023-04-03T13:14:57;99948.81;;;11.92;44.85
15604;BME280;7902;49.042;9.092;2023-04-03T13:17:24;99961.84;;;11.80;44.59
15604;BME280;7902;49.042;9.092;2023-04-03T13:19:50;99956.06;;;11.88;43.45
15604;BME280;7902;49.042;9.092;2023-04-03T13:22:36;99948.81;;;11.92;44.46
15604;BME280;7902;49.042;9.092;2023-04-03T13:25:11;99946.59;;;11.85;44.71
15604;BME280;7902;49.042;9.092;2023-04-03T13:27:38;99942.97;;;12.01;44.02
15604;BME280;7902;49.042;9.092;2023-04-03T13:32:48;99951.63;;;12.03;44.29
15604;BME280;7902;49.042;9.092;2023-04-03T13:35:46;99946.97;;;12.06;43.46
15604;BME280;7902;49.042;9.092;2023-04-03T13:40:58;99934.66;;;12.07;43.10
15604;BME280;7902;49.042;9.092;2023-04-03T13:43:29;99946.91;;;12.08;43.20
15604;BME280;7902;49.042;9.092;2023-04-03T13:46:00;99943.94;;;12.00;43.34
15604;BME280;7902;49.042;9.092;2023-04-03T13:48:43;99945.03;;;12.10;43.97
15604;BME280;7902;49.042;9.092;2023-04-03T13:51:17;99939.75;;;12.10;43.72
15604;BME280;7902;49.042;9.092;2023-04-03T13:53:55;99932.88;;;12.07;43.85
15604;BME280;7902;49.042;9.092;2023-04-03T13:56:39;99943.56;;;12.18;44.25
15604;BME280;7902;49.042;9.092;2023-04-03T14:01:47;99945.91;;;12.23;43.80
15604;BME280;7902;49.042;9.092;2023-04-03T14:04:27;99942.31;;;12.24;43.95
15604;BME280;7902;49.042;9.092;2023-04-03T14:06:54;99944.44;;;12.31;43.59
15604;BME280;7902;49.042;9.092;2023-04-03T14:09:22;99947.16;;;12.30;44.30
15604;BME280;7902;49.042;9.092;2023-04-03T14:11:50;99943.94;;;12.39;44.12
15604;BME280;7902;49.042;9.092;2023-04-03T14:14:21;99935.31;;;12.50;43.11
15604;BME280;7902;49.042;9.092;2023-04-03T14:16:53;99932.47;;;12.53;43.14
15604;BME280;7902;49.042;9.092;2023-04-03T14:19:32;99936.69;;;12.55;43.36
15604;BME280;7902;49.042;9.092;2023-04-03T14:21:59;99942.06;;;12.54;43.79
15604;BME280;7902;49.042;9.092;2023-04-03T14:24:26;99933.75;;;12.72;42.79
15604;BME280;7902;49.042;9.092;2023-04-03T14:26:54;99940.28;;;12.67;43.24
15604;BME280;7902;49.042;9.092;2023-04-03T14:29:21;99938.19;;;12.59;42.39
15604;BME280;7902;49.042;9.092;2023-04-03T14:31:49;99927.44;;;12.75;42.81